sensor_id;sensor_type;location;lat;lon;timestamp;P1;durP1;ratioP1;P2;durP2;ratioP2
22603;SDS011;11469;49.024;8.246;2023-02-01T00:00:45;12.57;;;5.60;;
22603;SDS011;11469;49.024;8.246;2023-02-01T00:03:10;14.75;;;6.65;;
22603;SDS011;11469;49.024;8.246;2023-02-01T00:05:37;13.73;;;6.15;;
22603;SDS011;11469;49.024;8.246;2023-02-01T00:08:03;10.77;;;6.03;;
22603;SDS011;11469;49.024;8.246;2023-02-01T00:10:29;12.20;;;5.70;;
22603;SDS011;11469;49.024;8.246;2023-02-01T00:12:54;14.18;;;6.78;;
22603;SDS011;11469;49.024;8.246;2023-02-01T00:15:20;12.63;;;5.95;;
22603;SDS011;11469;49.024;8.246;2023-02-01T00:17:45;10.68;;;5.80;;
22603;SDS011;11469;49.024;8.246;2023-02-01T00:20:11;13.88;;;6.13;;
22603;SDS011;11469;49.024;8.246;2023-02-01T00:22:37;12.68;;;6.13;;
22603;SDS011;11469;49.024;8.246;2023-02-01T00:25:02;12.45;;;6.22;;
22603;SDS011;11469;49.024;8.246;2023-02-01T00:27:28;17.27;;;6.57;;
22603;SDS011;11469;49.024;8.246;2023-02-01T00:29:56;13.90;;;6.25;;
22603;SDS011;11469;49.024;8.246;2023-02-01T00:32:21;12.25;;;5.80;;
22603;SDS011;11469;49.024;8.246;2023-02-01T00:34:47;10.98;;;6.03;;
22603;SDS011;11469;49.024;8.246;2023-02-01T00:37:12;13.23;;;4.95;;
22603;SDS011;11469;49.024;8.246;2023-02-01T00:39:37;14.10;;;5.55;;
22603;SDS011;11469;49.024;8.246;2023-02-01T00:42:03;12.55;;;5.30;;
22603;SDS011;11469;49.024;8.246;2023-02-01T00:44:28;12.05;;;4.93;;
22603;SDS011;11469;49.024;8.246;2023-02-01T00:46:58;11.32;;;4.70;;
22603;SDS011;11469;49.024;8.246;2023-02-01T00:49:23;9.68;;;4.60;;
22603;SDS011;11469;49.024;8.246;2023-02-01T00:51:49;10.55;;;5.20;;
22603;SDS011;11469;49.024;8.246;2023-02-01T00:54:14;10.18;;;5.10;;
22603;SDS011;11469;49.024;8.246;2023-02-01T00:56:39;17.20;;;5.05;;
22603;SDS011;11469;49.024;8.246;2023-02-01T00:59:05;8.85;;;4.82;;
22603;SDS011;11469;49.024;8.246;2023-02-01T01:01:30;7.82;;;4.82;;
22603;SDS011;11469;49.024;8.246;2023-02-01T01:03:56;14.48;;;5.15;;
22603;SDS011;11469;49.024;8.246;2023-02-01T01:06:24;11.20;;;5.85;;
22603;SDS011;11469;49.024;8.246;2023-02-01T01:08:52;9.10;;;4.75;;
22603;SDS011;11469;49.024;8.246;2023-02-01T01:11:21;7.80;;;4.30;;
22603;SDS011;11469;49.024;8.246;2023-02-01T01:13:49;10.18;;;4.38;;
22603;SDS011;11469;49.024;8.246;2023-02-01T01:16:16;9.23;;;4.13;;
22603;SDS011;11469;49.024;8.246;2023-02-01T01:18:42;8.60;;;4.22;;
22603;SDS011;11469;49.024;8.246;2023-02-01T01:21:08;7.85;;;3.53;;
22603;SDS011;11469;49.024;8.246;2023-02-01T01:23:36;10.35;;;4.35;;
22603;SDS011;11469;49.024;8.246;2023-02-01T01:26:06;8.13;;;3.50;;
22603;SDS011;11469;49.024;8.246;2023-02-01T01:28:32;10.57;;;4.00;;
22603;SDS011;11469;49.024;8.246;2023-02-01T01:30:58;6.47;;;3.47;;
22603;SDS011;11469;49.024;8.246;2023-02-01T01:33:23;6.10;;;3.28;;
22603;SDS011;11469;49.024;8.246;2023-02-01T01:35:49;8.68;;;3.75;;
22603;SDS011;11469;49.024;8.246;2023-02-01T01:38:14;10.57;;;3.80;;
22603;SDS011;11469;49.024;8.246;2023-02-01T01:40:39;7.90;;;3.70;;
22603;SDS011;11469;49.024;8.246;2023-02-01T01:43:12;8.75;;;3.58;;
22603;SDS011;11469;49.024;8.246;2023-02-01T01:45:39;5.93;;;3.35;;
22603;SDS011;11469;49.024;8.246;2023-02-01T01:48:09;5.95;;;3.28;;
22603;SDS011;11469;49.024;8.246;2023-02-01T01:50:50;6.47;;;3.25;;
22603;SDS011;11469;49.024;8.246;2023-02-01T01:53:20;6.53;;;3.60;;
22603;SDS011;11469;49.024;8.246;2023-02-01T01:55:50;6.40;;;3.28;;
22603;SDS011;11469;49.024;8.246;2023-02-01T01:58:18;5.00;;;2.63;;
22603;SDS011;11469;49.024;8.246;2023-02-01T02:00:46;6.03;;;2.85;;
22603;SDS011;11469;49.024;8.246;2023-02-01T02:03:23;5.30;;;2.90;;
22603;SDS011;11469;49.024;8.246;2023-02-01T02:06:00;7.57;;;2.60;;
22603;SDS011;11469;49.024;8.246;2023-02-01T02:08:28;5.80;;;2.83;;
22603;SDS011;11469;49.024;8.246;2023-02-01T02:10:54;5.05;;;2.70;;
22603;SDS011;11469;49.024;8.246;2023-02-01T02:13:59;4.65;;;2.35;;
22603;SDS011;11469;49.024;8.246;2023-02-01T02:19:32;5.10;;;3.05;;
22603;SDS011;11469;49.024;8.246;2023-02-01T02:33:36;4.22;;;2.13;;
22603;SDS011;11469;49.024;8.246;2023-02-01T02:36:12;4.28;;;2.03;;
22603;SDS011;11469;49.024;8.246;2023-02-01T02:38:47;4.35;;;2.25;;
22603;SDS011;11469;49.024;8.246;2023-02-01T02:41:15;8.52;;;2.70;;
22603;SDS011;11469;49.024;8.246;2023-02-01T02:44:53;4.25;;;2.20;;
22603;SDS011;11469;49.024;8.246;2023-02-01T02:47:23;5.00;;;2.67;;
22603;SDS011;11469;49.024;8.246;2023-02-01T02:52:47;5.20;;;2.50;;
22603;SDS011;11469;49.024;8.246;2023-02-01T02:55:41;3.63;;;2.00;;
22603;SDS011;11469;49.024;8.246;2023-02-01T02:58:08;5.00;;;2.50;;
22603;SDS011;11469;49.024;8.246;2023-02-01T03:00:55;4.22;;;2.15;;
22603;SDS011;11469;49.024;8.246;2023-02-01T03:03:40;5.53;;;2.38;;
22603;SDS011;11469;49.024;8.246;2023-02-01T03:08:51;4.90;;;2.45;;
22603;SDS011;11469;49.024;8.246;2023-02-01T03:11:22;3.30;;;1.50;;
22603;SDS011;11469;49.024;8.246;2023-02-01T03:13:58;2.90;;;1.63;;
22603;SDS011;11469;49.024;8.246;2023-02-01T03:16:28;4.00;;;1.88;;
22603;SDS011;11469;49.024;8.246;2023-02-01T03:19:04;4.53;;;2.10;;
22603;SDS011;11469;49.024;8.246;2023-02-01T03:24:51;4.50;;;2.30;;
22603;SDS011;11469;49.024;8.246;2023-02-01T03:27:24;4.32;;;2.10;;
22603;SDS011;11469;49.024;8.246;2023-02-01T03:32:53;5.53;;;2.50;;
22603;SDS011;11469;49.024;8.246;2023-02-01T03:44:13;4.82;;;2.65;;
22603;SDS011;11469;49.024;8.246;2023-02-01T03:46:49;4.40;;;2.88;;
22603;SDS011;11469;49.024;8.246;2023-02-01T03:49:20;5.78;;;3.15;;
22603;SDS011;11469;49.024;8.246;2023-02-01T03:51:51;5.38;;;2.88;;
22603;SDS011;11469;49.024;8.246;2023-02-01T03:54:19;4.47;;;2.80;;
22603;SDS011;11469;49.024;8.246;2023-02-01T03:56:45;5.60;;;2.92;;
22603;SDS011;11469;49.024;8.246;2023-02-01T03:59:13;4.82;;;2.80;;
22603;SDS011;11469;49.024;8.246;2023-02-01T04:01:39;6.45;;;3.00;;
22603;SDS011;11469;49.024;8.246;2023-02-01T04:04:05;4.25;;;2.58;;
22603;SDS011;11469;49.024;8.246;2023-02-01T04:06:31;5.32;;;2.83;;
22603;SDS011;11469;49.024;8.246;2023-02-01T04:08:56;5.10;;;2.97;;
22603;SDS011;11469;49.024;8.246;2023-02-01T04:11:22;6.95;;;2.97;;
22603;SDS011;11469;49.024;8.246;2023-02-01T04:13:47;4.82;;;2.22;;
22603;SDS011;11469;49.024;8.246;2023-02-01T04:16:13;3.85;;;2.58;;
22603;SDS011;11469;49.024;8.246;2023-02-01T04:18:38;7.20;;;3.25;;
22603;SDS011;11469;49.024;8.246;2023-02-01T04:21:03;7.05;;;3.08;;
22603;SDS011;11469;49.024;8.246;2023-02-01T04:23:29;4.43;;;2.92;;
22603;SDS011;11469;49.024;8.246;2023-02-01T04:26:00;4.75;;;2.92;;
22603;SDS011;11469;49.024;8.246;2023-02-01T04:28:26;6.10;;;3.55;;
22603;SDS011;11469;49.024;8.246;2023-02-01T04:30:52;8.68;;;3.55;;
22603;SDS011;11469;49.024;8.246;2023-02-01T04:33:17;8.88;;;4.00;;
22603;SDS011;11469;49.024;8.246;2023-02-01T04:35:43;7.60;;;3.95;;
22603;SDS011;11469;49.024;8.246;2023-02-01T04:38:08;9.85;;;4.13;;
22603;SDS011;11469;49.024;8.246;2023-02-01T04:40:33;7.00;;;4.07;;
22603;SDS011;11469;49.024;8.246;2023-02-01T04:43:00;8.35;;;4.38;;
22603;SDS011;11469;49.024;8.246;2023-02-01T04:45:26;12.63;;;6.50;;
22603;SDS011;11469;49.024;8.246;2023-02-01T04:47:51;7.88;;;4.35;;
22603;SDS011;11469;49.024;8.246;2023-02-01T04:50:17;7.57;;;3.88;;
22603;SDS011;11469;49.024;8.246;2023-02-01T04:52:42;14.38;;;4.85;;
22603;SDS011;11469;49.024;8.246;2023-02-01T04:55:10;8.40;;;3.95;;
22603;SDS011;11469;49.024;8.246;2023-02-01T04:57:35;16.13;;;4.63;;
22603;SDS011;11469;49.024;8.246;2023-02-01T05:00:04;8.02;;;4.57;;
22603;SDS011;11469;49.024;8.246;2023-02-01T05:02:30;9.75;;;4.25;;
22603;SDS011;11469;49.024;8.246;2023-02-01T05:04:57;7.00;;;3.80;;
22603;SDS011;11469;49.024;8.246;2023-02-01T05:07:22;8.63;;;4.20;;
22603;SDS011;11469;49.024;8.246;2023-02-01T05:09:47;7.50;;;4.18;;
22603;SDS011;11469;49.024;8.246;2023-02-01T05:12:13;6.53;;;3.63;;
22603;SDS011;11469;49.024;8.246;2023-02-01T05:14:57;9.85;;;3.75;;
22603;SDS011;11469;49.024;8.246;2023-02-01T05:17:22;6.72;;;3.40;;
22603;SDS011;11469;49.024;8.246;2023-02-01T05:19:47;8.98;;;4.68;;
22603;SDS011;11469;49.024;8.246;2023-02-01T05:22:13;13.43;;;4.78;;
22603;SDS011;11469;49.024;8.246;2023-02-01T05:24:38;12.38;;;4.20;;
22603;SDS011;11469;49.024;8.246;2023-02-01T05:27:03;7.20;;;4.20;;
22603;SDS011;11469;49.024;8.246;2023-02-01T05:29:29;6.55;;;3.55;;
22603;SDS011;11469;49.024;8.246;2023-02-01T05:31:54;7.97;;;4.00;;
22603;SDS011;11469;49.024;8.246;2023-02-01T05:34:20;10.63;;;4.47;;
22603;SDS011;11469;49.024;8.246;2023-02-01T05:36:45;6.18;;;4.03;;
22603;SDS011;11469;49.024;8.246;2023-02-01T05:39:10;10.18;;;4.45;;
22603;SDS011;11469;49.024;8.246;2023-02-01T05:41:36;8.18;;;4.28;;
22603;SDS011;11469;49.024;8.246;2023-02-01T05:44:02;8.40;;;4.60;;
22603;SDS011;11469;49.024;8.246;2023-02-01T05:46:27;11.63;;;4.53;;
22603;SDS011;11469;49.024;8.246;2023-02-01T05:48:53;11.85;;;5.93;;
22603;SDS011;11469;49.024;8.246;2023-02-01T05:51:18;8.98;;;4.38;;
22603;SDS011;11469;49.024;8.246;2023-02-01T05:53:44;14.65;;;5.20;;
22603;SDS011;11469;49.024;8.246;2023-02-01T05:56:09;12.30;;;5.15;;
22603;SDS011;11469;49.024;8.246;2023-02-01T05:58:35;12.50;;;5.35;;
22603;SDS011;11469;49.024;8.246;2023-02-01T06:01:01;15.35;;;5.97;;
22603;SDS011;11469;49.024;8.246;2023-02-01T06:03:27;11.48;;;5.60;;
22603;SDS011;11469;49.024;8.246;2023-02-01T06:05:53;12.65;;;6.03;;
22603;SDS011;11469;49.024;8.246;2023-02-01T06:08:18;15.90;;;5.47;;
22603;SDS011;11469;49.024;8.246;2023-02-01T06:10:44;12.35;;;5.05;;
22603;SDS011;11469;49.024;8.246;2023-02-01T06:13:09;17.20;;;5.53;;
22603;SDS011;11469;49.024;8.246;2023-02-01T06:15:35;12.20;;;5.13;;
22603;SDS011;11469;49.024;8.246;2023-02-01T06:18:02;17.50;;;5.35;;
22603;SDS011;11469;49.024;8.246;2023-02-01T06:20:28;13.15;;;4.72;;
22603;SDS011;11469;49.024;8.246;2023-02-01T06:22:53;15.40;;;5.57;;
22603;SDS011;11469;49.024;8.246;2023-02-01T06:25:19;12.85;;;5.05;;
22603;SDS011;11469;49.024;8.246;2023-02-01T06:27:44;16.42;;;6.13;;
22603;SDS011;11469;49.024;8.246;2023-02-01T06:30:10;11.38;;;5.43;;
22603;SDS011;11469;49.024;8.246;2023-02-01T06:32:39;15.95;;;6.05;;
22603;SDS011;11469;49.024;8.246;2023-02-01T06:35:09;13.70;;;6.38;;
22603;SDS011;11469;49.024;8.246;2023-02-01T06:37:41;14.85;;;6.00;;
22603;SDS011;11469;49.024;8.246;2023-02-01T06:40:07;13.60;;;5.72;;
22603;SDS011;11469;49.024;8.246;2023-02-01T06:42:33;16.83;;;6.30;;
22603;SDS011;11469;49.024;8.246;2023-02-01T06:44:59;15.68;;;6.05;;
22603;SDS011;11469;49.024;8.246;2023-02-01T06:47:24;14.88;;;6.10;;
22603;SDS011;11469;49.024;8.246;2023-02-01T06:49:50;15.57;;;6.25;;
22603;SDS011;11469;49.024;8.246;2023-02-01T06:52:15;18.98;;;6.15;;
22603;SDS011;11469;49.024;8.246;2023-02-01T06:54:40;13.07;;;6.00;;
22603;SDS011;11469;49.024;8.246;2023-02-01T06:57:06;15.95;;;5.88;;
22603;SDS011;11469;49.024;8.246;2023-02-01T06:59:31;21.08;;;6.93;;
22603;SDS011;11469;49.024;8.246;2023-02-01T07:01:56;19.77;;;6.63;;
22603;SDS011;11469;49.024;8.246;2023-02-01T07:04:22;23.67;;;7.05;;
22603;SDS011;11469;49.024;8.246;2023-02-01T07:06:47;16.88;;;6.32;;
22603;SDS011;11469;49.024;8.246;2023-02-01T07:09:13;20.52;;;6.45;;
22603;SDS011;11469;49.024;8.246;2023-02-01T07:11:38;19.45;;;7.38;;
22603;SDS011;11469;49.024;8.246;2023-02-01T07:14:08;18.33;;;6.72;;
22603;SDS011;11469;49.024;8.246;2023-02-01T07:16:34;15.15;;;6.18;;
22603;SDS011;11469;49.024;8.246;2023-02-01T07:18:59;16.83;;;6.50;;
22603;SDS011;11469;49.024;8.246;2023-02-01T07:21:25;15.73;;;6.22;;
22603;SDS011;11469;49.024;8.246;2023-02-01T07:23:52;20.35;;;6.43;;
22603;SDS011;11469;49.024;8.246;2023-02-01T07:26:18;17.00;;;7.03;;
22603;SDS011;11469;49.024;8.246;2023-02-01T07:28:44;18.70;;;6.75;;
22603;SDS011;11469;49.024;8.246;2023-02-01T07:31:12;19.35;;;6.07;;
22603;SDS011;11469;49.024;8.246;2023-02-01T07:33:47;17.33;;;6.20;;
22603;SDS011;11469;49.024;8.246;2023-02-01T07:36:18;19.13;;;6.78;;
22603;SDS011;11469;49.024;8.246;2023-02-01T07:38:44;18.75;;;6.07;;
22603;SDS011;11469;49.024;8.246;2023-02-01T07:41:12;18.88;;;7.15;;
22603;SDS011;11469;49.024;8.246;2023-02-01T07:43:37;17.05;;;6.13;;
22603;SDS011;11469;49.024;8.246;2023-02-01T07:46:03;18.48;;;6.10;;
22603;SDS011;11469;49.024;8.246;2023-02-01T07:48:29;15.05;;;6.32;;
22603;SDS011;11469;49.024;8.246;2023-02-01T07:50:56;12.45;;;6.40;;
22603;SDS011;11469;49.024;8.246;2023-02-01T07:53:27;23.15;;;6.10;;
22603;SDS011;11469;49.024;8.246;2023-02-01T07:55:54;21.08;;;6.65;;
22603;SDS011;11469;49.024;8.246;2023-02-01T07:58:21;22.02;;;5.95;;
22603;SDS011;11469;49.024;8.246;2023-02-01T08:00:47;16.45;;;6.22;;
22603;SDS011;11469;49.024;8.246;2023-02-01T08:03:30;17.42;;;5.55;;
22603;SDS011;11469;49.024;8.246;2023-02-01T08:05:56;19.27;;;5.30;;
22603;SDS011;11469;49.024;8.246;2023-02-01T08:08:22;17.05;;;6.15;;
22603;SDS011;11469;49.024;8.246;2023-02-01T08:10:47;16.60;;;5.57;;
22603;SDS011;11469;49.024;8.246;2023-02-01T08:13:13;15.70;;;5.65;;
22603;SDS011;11469;49.024;8.246;2023-02-01T08:15:38;14.93;;;6.05;;
22603;SDS011;11469;49.024;8.246;2023-02-01T08:18:04;11.23;;;5.82;;
22603;SDS011;11469;49.024;8.246;2023-02-01T08:20:29;12.20;;;6.00;;
22603;SDS011;11469;49.024;8.246;2023-02-01T08:22:55;12.07;;;4.25;;
22603;SDS011;11469;49.024;8.246;2023-02-01T08:25:21;19.38;;;5.47;;
22603;SDS011;11469;49.024;8.246;2023-02-01T08:27:48;15.23;;;4.95;;
22603;SDS011;11469;49.024;8.246;2023-02-01T08:30:13;11.07;;;5.03;;
22603;SDS011;11469;49.024;8.246;2023-02-01T08:32:39;11.70;;;5.15;;
22603;SDS011;11469;49.024;8.246;2023-02-01T08:35:05;16.55;;;6.25;;
22603;SDS011;11469;49.024;8.246;2023-02-01T08:37:30;14.52;;;5.07;;
22603;SDS011;11469;49.024;8.246;2023-02-01T08:39:56;15.32;;;5.32;;
22603;SDS011;11469;49.024;8.246;2023-02-01T08:42:21;23.25;;;5.68;;
22603;SDS011;11469;49.024;8.246;2023-02-01T08:45:05;16.15;;;5.55;;
22603;SDS011;11469;49.024;8.246;2023-02-01T08:47:32;19.27;;;5.70;;
22603;SDS011;11469;49.024;8.246;2023-02-01T08:49:58;20.80;;;5.47;;
22603;SDS011;11469;49.024;8.246;2023-02-01T08:52:24;24.08;;;7.20;;
22603;SDS011;11469;49.024;8.246;2023-02-01T08:54:49;35.40;;;10.82;;
22603;SDS011;11469;49.024;8.246;2023-02-01T08:57:15;26.70;;;7.28;;
22603;SDS011;11469;49.024;8.246;2023-02-01T08:59:40;25.98;;;6.95;;
22603;SDS011;11469;49.024;8.246;2023-02-01T09:02:06;28.38;;;7.47;;
22603;SDS011;11469;49.024;8.246;2023-02-01T09:04:33;28.65;;;8.38;;
22603;SDS011;11469;49.024;8.246;2023-02-01T09:06:58;25.90;;;5.82;;
22603;SDS011;11469;49.024;8.246;2023-02-01T09:09:24;28.92;;;7.18;;
22603;SDS011;11469;49.024;8.246;2023-02-01T09:11:49;28.70;;;6.15;;
22603;SDS011;11469;49.024;8.246;2023-02-01T09:14:15;25.60;;;6.25;;
22603;SDS011;11469;49.024;8.246;2023-02-01T09:16:41;22.58;;;5.88;;
22603;SDS011;11469;49.024;8.246;2023-02-01T09:19:06;19.95;;;6.00;;
22603;SDS011;11469;49.024;8.246;2023-02-01T09:21:32;31.15;;;5.10;;
22603;SDS011;11469;49.024;8.246;2023-02-01T09:23:57;21.17;;;4.53;;
22603;SDS011;11469;49.024;8.246;2023-02-01T09:26:23;28.23;;;4.85;;
22603;SDS011;11469;49.024;8.246;2023-02-01T09:28:50;27.00;;;4.82;;
22603;SDS011;11469;49.024;8.246;2023-02-01T09:31:15;24.63;;;4.40;;
22603;SDS011;11469;49.024;8.246;2023-02-01T09:33:40;22.50;;;5.25;;
22603;SDS011;11469;49.024;8.246;2023-02-01T09:36:06;22.98;;;4.93;;
22603;SDS011;11469;49.024;8.246;2023-02-01T09:38:32;24.35;;;4.30;;
22603;SDS011;11469;49.024;8.246;2023-02-01T09:40:57;27.65;;;4.32;;
22603;SDS011;11469;49.024;8.246;2023-02-01T09:46:19;23.38;;;4.85;;
22603;SDS011;11469;49.024;8.246;2023-02-01T09:48:48;32.92;;;5.90;;
22603;SDS011;11469;49.024;8.246;2023-02-01T09:51:21;25.15;;;4.78;;
22603;SDS011;11469;49.024;8.246;2023-02-01T09:56:36;32.05;;;5.15;;
22603;SDS011;11469;49.024;8.246;2023-02-01T09:59:09;18.00;;;3.90;;
22603;SDS011;11469;49.024;8.246;2023-02-01T10:01:55;33.97;;;6.18;;
22603;SDS011;11469;49.024;8.246;2023-02-01T10:04:22;20.08;;;4.03;;
22603;SDS011;11469;49.024;8.246;2023-02-01T10:18:08;25.83;;;4.85;;
22603;SDS011;11469;49.024;8.246;2023-02-01T10:25:54;22.15;;;4.65;;
22603;SDS011;11469;49.024;8.246;2023-02-01T10:28:21;22.77;;;4.45;;
22603;SDS011;11469;49.024;8.246;2023-02-01T10:30:49;23.90;;;4.75;;
22603;SDS011;11469;49.024;8.246;2023-02-01T10:33:23;26.02;;;4.72;;
22603;SDS011;11469;49.024;8.246;2023-02-01T10:36:01;25.35;;;4.28;;
22603;SDS011;11469;49.024;8.246;2023-02-01T10:38:35;31.57;;;5.23;;
22603;SDS011;11469;49.024;8.246;2023-02-01T10:41:02;23.08;;;4.45;;
22603;SDS011;11469;49.024;8.246;2023-02-01T10:43:33;25.95;;;4.57;;
22603;SDS011;11469;49.024;8.246;2023-02-01T10:45:59;19.00;;;4.60;;
22603;SDS011;11469;49.024;8.246;2023-02-01T10:48:25;32.55;;;5.25;;
22603;SDS011;11469;49.024;8.246;2023-02-01T10:53:20;25.17;;;4.22;;
22603;SDS011;11469;49.024;8.246;2023-02-01T10:55:50;23.08;;;4.63;;
22603;SDS011;11469;49.024;8.246;2023-02-01T10:58:18;29.48;;;4.65;;
22603;SDS011;11469;49.024;8.246;2023-02-01T11:00:57;18.83;;;4.75;;
22603;SDS011;11469;49.024;8.246;2023-02-01T11:06:37;25.73;;;4.25;;
22603;SDS011;11469;49.024;8.246;2023-02-01T11:11:32;26.63;;;5.13;;
22603;SDS011;11469;49.024;8.246;2023-02-01T11:16:49;28.52;;;4.53;;
22603;SDS011;11469;49.024;8.246;2023-02-01T11:19:26;19.75;;;3.85;;
22603;SDS011;11469;49.024;8.246;2023-02-01T11:21:52;26.52;;;5.05;;
22603;SDS011;11469;49.024;8.246;2023-02-01T11:24:23;20.85;;;4.70;;
22603;SDS011;11469;49.024;8.246;2023-02-01T11:26:56;31.90;;;5.88;;
22603;SDS011;11469;49.024;8.246;2023-02-01T11:29:22;25.80;;;4.70;;
22603;SDS011;11469;49.024;8.246;2023-02-01T11:31:55;27.83;;;4.40;;
22603;SDS011;11469;49.024;8.246;2023-02-01T11:34:24;35.35;;;5.18;;
22603;SDS011;11469;49.024;8.246;2023-02-01T11:37:02;32.85;;;4.88;;
22603;SDS011;11469;49.024;8.246;2023-02-01T11:39:30;29.30;;;4.68;;
22603;SDS011;11469;49.024;8.246;2023-02-01T11:42:02;29.50;;;4.57;;
22603;SDS011;11469;49.024;8.246;2023-02-01T11:44:40;26.48;;;5.35;;
22603;SDS011;11469;49.024;8.246;2023-02-01T11:49:45;23.98;;;4.22;;
22603;SDS011;11469;49.024;8.246;2023-02-01T11:55:01;29.15;;;4.80;;
22603;SDS011;11469;49.024;8.246;2023-02-01T12:00:01;24.02;;;4.40;;
22603;SDS011;11469;49.024;8.246;2023-02-01T12:05:18;31.15;;;4.35;;
22603;SDS011;11469;49.024;8.246;2023-02-01T12:10:40;24.58;;;4.80;;
22603;SDS011;11469;49.024;8.246;2023-02-01T12:24:33;30.95;;;3.88;;
22603;SDS011;11469;49.024;8.246;2023-02-01T12:32:51;27.15;;;4.40;;
22603;SDS011;11469;49.024;8.246;2023-02-01T12:38:23;24.90;;;4.30;;
22603;SDS011;11469;49.024;8.246;2023-02-01T12:41:12;29.60;;;4.80;;
22603;SDS011;11469;49.024;8.246;2023-02-01T12:43:59;32.40;;;4.78;;
22603;SDS011;11469;49.024;8.246;2023-02-01T12:52:10;31.33;;;3.85;;
22603;SDS011;11469;49.024;8.246;2023-02-01T12:57:23;26.90;;;4.53;;
22603;SDS011;11469;49.024;8.246;2023-02-01T13:05:19;29.83;;;5.40;;
22603;SDS011;11469;49.024;8.246;2023-02-01T13:07:57;27.33;;;4.22;;
22603;SDS011;11469;49.024;8.246;2023-02-01T13:16:14;25.60;;;4.57;;
22603;SDS011;11469;49.024;8.246;2023-02-01T13:18:55;32.83;;;4.85;;
22603;SDS011;11469;49.024;8.246;2023-02-01T13:21:30;24.23;;;3.92;;
22603;SDS011;11469;49.024;8.246;2023-02-01T13:23:59;29.48;;;4.03;;
22603;SDS011;11469;49.024;8.246;2023-02-01T13:26:24;20.35;;;4.53;;
22603;SDS011;11469;49.024;8.246;2023-02-01T13:28:54;27.20;;;3.70;;
22603;SDS011;11469;49.024;8.246;2023-02-01T13:34:32;26.08;;;5.93;;
22603;SDS011;11469;49.024;8.246;2023-02-01T13:42:51;39.15;;;6.30;;
22603;SDS011;11469;49.024;8.246;2023-02-01T13:45:27;31.60;;;5.90;;
22603;SDS011;11469;49.024;8.246;2023-02-01T13:48:01;24.33;;;3.38;;
22603;SDS011;11469;49.024;8.246;2023-02-01T13:50:33;25.83;;;4.80;;
22603;SDS011;11469;49.024;8.246;2023-02-01T13:55:41;25.95;;;5.00;;
22603;SDS011;11469;49.024;8.246;2023-02-01T13:58:12;29.40;;;5.05;;
22603;SDS011;11469;49.024;8.246;2023-02-01T14:00:40;31.75;;;4.50;;
22603;SDS011;11469;49.024;8.246;2023-02-01T14:03:09;47.40;;;10.98;;
22603;SDS011;11469;49.024;8.246;2023-02-01T14:13:31;25.10;;;5.00;;
22603;SDS011;11469;49.024;8.246;2023-02-01T14:23:47;35.72;;;5.65;;
22603;SDS011;11469;49.024;8.246;2023-02-01T14:28:57;18.80;;;3.72;;
22603;SDS011;11469;49.024;8.246;2023-02-01T14:33:58;22.83;;;3.70;;
22603;SDS011;11469;49.024;8.246;2023-02-01T14:36:25;20.42;;;3.85;;
22603;SDS011;11469;49.024;8.246;2023-02-01T14:38:52;21.67;;;3.58;;
22603;SDS011;11469;49.024;8.246;2023-02-01T14:41:26;24.42;;;4.18;;
22603;SDS011;11469;49.024;8.246;2023-02-01T14:49:36;25.73;;;4.47;;
22603;SDS011;11469;49.024;8.246;2023-02-01T14:52:22;34.85;;;4.05;;
22603;SDS011;11469;49.024;8.246;2023-02-01T14:55:00;23.17;;;4.57;;
22603;SDS011;11469;49.024;8.246;2023-02-01T14:57:30;19.13;;;3.40;;
22603;SDS011;11469;49.024;8.246;2023-02-01T15:00:06;16.25;;;3.63;;
22603;SDS011;11469;49.024;8.246;2023-02-01T15:02:39;27.02;;;3.90;;
22603;SDS011;11469;49.024;8.246;2023-02-01T15:05:16;28.13;;;3.70;;
22603;SDS011;11469;49.024;8.246;2023-02-01T15:07:57;20.30;;;3.80;;
22603;SDS011;11469;49.024;8.246;2023-02-01T15:10:28;26.40;;;3.88;;
22603;SDS011;11469;49.024;8.246;2023-02-01T15:12:56;20.15;;;3.20;;
22603;SDS011;11469;49.024;8.246;2023-02-01T15:15:23;17.23;;;3.58;;
22603;SDS011;11469;49.024;8.246;2023-02-01T15:17:58;21.00;;;3.45;;
22603;SDS011;11469;49.024;8.246;2023-02-01T15:20:29;18.02;;;3.45;;
22603;SDS011;11469;49.024;8.246;2023-02-01T15:25:27;26.27;;;3.85;;
22603;SDS011;11469;49.024;8.246;2023-02-01T15:28:03;24.98;;;4.32;;
22603;SDS011;11469;49.024;8.246;2023-02-01T15:30:32;26.60;;;4.47;;
22603;SDS011;11469;49.024;8.246;2023-02-01T15:33:06;32.17;;;7.55;;
22603;SDS011;11469;49.024;8.246;2023-02-01T15:35:48;28.60;;;6.00;;
22603;SDS011;11469;49.024;8.246;2023-02-01T15:46:36;18.83;;;3.65;;
22603;SDS011;11469;49.024;8.246;2023-02-01T15:49:03;29.55;;;5.18;;
22603;SDS011;11469;49.024;8.246;2023-02-01T15:51:30;23.80;;;5.10;;
22603;SDS011;11469;49.024;8.246;2023-02-01T15:53:58;22.83;;;4.28;;
22603;SDS011;11469;49.024;8.246;2023-02-01T15:56:44;26.90;;;4.35;;
22603;SDS011;11469;49.024;8.246;2023-02-01T15:59:18;23.45;;;4.85;;
22603;SDS011;11469;49.024;8.246;2023-02-01T16:01:56;21.92;;;5.38;;
22603;SDS011;11469;49.024;8.246;2023-02-01T16:04:25;25.42;;;3.83;;
22603;SDS011;11469;49.024;8.246;2023-02-01T16:06:58;21.15;;;4.07;;
22603;SDS011;11469;49.024;8.246;2023-02-01T16:09:38;23.95;;;5.30;;
22603;SDS011;11469;49.024;8.246;2023-02-01T16:12:23;22.50;;;4.05;;
22603;SDS011;11469;49.024;8.246;2023-02-01T16:14:48;26.83;;;4.03;;
22603;SDS011;11469;49.024;8.246;2023-02-01T16:17:14;21.88;;;4.45;;
22603;SDS011;11469;49.024;8.246;2023-02-01T16:19:40;30.90;;;4.35;;
22603;SDS011;11469;49.024;8.246;2023-02-01T16:22:05;19.63;;;3.90;;
22603;SDS011;11469;49.024;8.246;2023-02-01T16:24:30;32.13;;;5.22;;
22603;SDS011;11469;49.024;8.246;2023-02-01T16:26:57;28.25;;;4.88;;
22603;SDS011;11469;49.024;8.246;2023-02-01T16:29:22;22.13;;;4.65;;
22603;SDS011;11469;49.024;8.246;2023-02-01T16:31:48;26.15;;;3.85;;
22603;SDS011;11469;49.024;8.246;2023-02-01T16:34:15;22.13;;;4.07;;
22603;SDS011;11469;49.024;8.246;2023-02-01T16:36:48;22.30;;;3.20;;
22603;SDS011;11469;49.024;8.246;2023-02-01T16:39:19;19.77;;;3.70;;
22603;SDS011;11469;49.024;8.246;2023-02-01T16:41:46;29.20;;;3.78;;
22603;SDS011;11469;49.024;8.246;2023-02-01T16:44:11;25.00;;;4.05;;
22603;SDS011;11469;49.024;8.246;2023-02-01T16:46:40;29.50;;;4.38;;
22603;SDS011;11469;49.024;8.246;2023-02-01T16:49:15;21.80;;;4.03;;
22603;SDS011;11469;49.024;8.246;2023-02-01T16:51:44;23.48;;;4.15;;
22603;SDS011;11469;49.024;8.246;2023-02-01T16:54:10;20.45;;;3.80;;
22603;SDS011;11469;49.024;8.246;2023-02-01T16:56:35;22.95;;;4.15;;
22603;SDS011;11469;49.024;8.246;2023-02-01T16:59:02;27.85;;;3.78;;
22603;SDS011;11469;49.024;8.246;2023-02-01T17:01:27;24.85;;;3.70;;
22603;SDS011;11469;49.024;8.246;2023-02-01T17:03:53;23.38;;;3.67;;
22603;SDS011;11469;49.024;8.246;2023-02-01T17:06:19;30.13;;;4.35;;
22603;SDS011;11469;49.024;8.246;2023-02-01T17:08:49;23.25;;;4.85;;
22603;SDS011;11469;49.024;8.246;2023-02-01T17:11:17;24.38;;;4.53;;
22603;SDS011;11469;49.024;8.246;2023-02-01T17:13:43;25.70;;;4.55;;
22603;SDS011;11469;49.024;8.246;2023-02-01T17:18:38;22.48;;;3.53;;
22603;SDS011;11469;49.024;8.246;2023-02-01T17:21:04;17.65;;;3.58;;
22603;SDS011;11469;49.024;8.246;2023-02-01T17:23:30;25.75;;;4.95;;
22603;SDS011;11469;49.024;8.246;2023-02-01T17:25:56;44.83;;;4.90;;
22603;SDS011;11469;49.024;8.246;2023-02-01T17:28:22;36.88;;;5.97;;
22603;SDS011;11469;49.024;8.246;2023-02-01T17:30:48;29.13;;;3.72;;
22603;SDS011;11469;49.024;8.246;2023-02-01T17:33:21;21.42;;;4.45;;
22603;SDS011;11469;49.024;8.246;2023-02-01T17:35:49;28.40;;;4.82;;
22603;SDS011;11469;49.024;8.246;2023-02-01T17:38:15;25.73;;;3.67;;
22603;SDS011;11469;49.024;8.246;2023-02-01T17:40:40;23.98;;;3.88;;